West Point, CA (95255)

4:49 AM PST on February 14, 2016 (GMT -0800)
Walton's Mountain Winery | | Change Station
CLOSE
Current Station
Personal Weather Station
Location: West Point, CA
Elevation: 2800 ft
Nearby Weather Stations

Elev 2800 ft 38.40 °N, 120.52 °W | Updated 1 minute ago

Clear
Clear
44.1 °F
Feels Like 44 °F
N
0.0
Wind Variable Wind from NW
Gusts 0.0 mph

Today
High -- | Low -- °F
--% Chance of Precip.
Yesterday
High -- | Low -- °F
Precip. -- in
Pressure 30.28 in
Visibility 10.0 miles
Clouds Clear
Windchill 44 °F
Dew Point 25 °F
Humidity 46%
Rainfall 0.00 in
Snow Depth Not available.
6:54 AM 5:38 PM
Waxing Crescent, 41% visible
METAR KPVF 141235Z AUTO 07007KT 10SM CLR 10/M01 A3028 RMK AO1
Pressure 30.28 in
Visibility 10.0 miles
Clouds Clear
Windchill 44 °F
Dew Point 25 °F
Humidity 46%
Rainfall 0.00 in
Snow Depth Not available.
6:54 AM 5:38 PM
Waxing Crescent, 41% visible
METAR KPVF 141235Z AUTO 07007KT 10SM CLR 10/M01 A3028 RMK AO1

10-Day Weather Forecast

Almanac

Astronomy

Feb. 14, 2016 Rise Set
Actual Time
Civil Twilight
Nautical Twilight
Astronomical Twilight
Moon
Length of Visible Light
Length of Day
Tomorrow will be .
, % of the Moon is Illuminated

Today's Extremes

State Highs State Lows

Community

WunderPhotos

Upload Photos

1,892,775 photos uploaded!

WunderBlog® & News

Nearby

Air Quality

  Air Quality AQ Index Pollutant
Not available.

Snow Depth

Station Depth Elevation

Earthquake Activity

City Distance Mag. Time & Date
Minimum magnitude displayed is 2.5.

Coastal Water Temperatures

Place Temperature

Stations

Nearby Weather Stations

Station Location Temp. Windchill Dew Point Humidity Wind Precip. Elev Updated Type
                   

Watches & Warnings

There are currently no watches in effect.